createdAt,value
2019-03-30T00:00:28.820Z,14.40
2019-03-30T00:05:25.498Z,14.27
2019-03-30T00:10:22.054Z,14.83
2019-03-30T00:15:18.671Z,18.23
2019-03-30T00:20:15.425Z,16.67
2019-03-30T00:25:12.049Z,14.70
2019-03-30T00:30:10.775Z,15.03
2019-03-30T00:35:07.465Z,15.30
2019-03-30T00:40:04.039Z,12.30
2019-03-30T00:45:01.706Z,13.43
2019-03-30T00:49:58.249Z,12.00
2019-03-30T00:54:54.822Z,13.07
2019-03-30T00:59:51.463Z,11.97
2019-03-30T01:04:48.026Z,15.67
2019-03-30T01:09:44.747Z,12.83
2019-03-30T01:14:41.272Z,13.90
2019-03-30T01:19:37.857Z,12.07
2019-03-30T01:24:34.553Z,14.57
2019-03-30T01:29:31.121Z,11.70
2019-03-30T01:34:27.755Z,11.33
2019-03-30T01:39:24.324Z,12.00
2019-03-30T01:44:22.207Z,16.83
2019-03-30T01:49:18.907Z,12.17
2019-03-30T01:54:15.477Z,13.40
2019-03-30T01:59:12.002Z,13.73
2019-03-30T02:04:08.678Z,13.87
2019-03-30T02:09:06.781Z,13.30
2019-03-30T02:14:03.354Z,10.03
2019-03-30T02:19:00.011Z,13.10
2019-03-30T02:23:56.728Z,14.57
2019-03-30T02:28:53.376Z,10.77
2019-03-30T02:33:49.946Z,13.83
2019-03-30T02:38:46.561Z,13.17
2019-03-30T02:43:43.169Z,14.23
2019-03-30T02:48:39.716Z,11.43
2019-03-30T02:53:36.266Z,14.00
2019-03-30T02:58:32.903Z,13.47
2019-03-30T03:03:29.601Z,12.50
2019-03-30T03:08:26.190Z,13.63
2019-03-30T03:13:22.771Z,12.07
2019-03-30T03:18:19.370Z,15.77
2019-03-30T03:23:15.903Z,13.63
2019-03-30T03:28:12.561Z,14.07
2019-03-30T03:33:09.725Z,16.00
2019-03-30T03:38:07.409Z,11.97
2019-03-30T03:43:04.036Z,15.30
2019-03-30T03:48:00.642Z,13.47
2019-03-30T03:52:57.386Z,13.30
2019-03-30T03:57:54.668Z,13.73
2019-03-30T04:02:52.959Z,12.80
2019-03-30T04:07:52.602Z,14.20
2019-03-30T04:12:51.073Z,18.47
2019-03-30T04:17:47.669Z,15.33
2019-03-30T04:22:44.315Z,13.90
2019-03-30T04:27:40.935Z,14.23
2019-03-30T04:32:37.612Z,14.97
2019-03-30T04:37:34.232Z,16.87
2019-03-30T04:42:30.810Z,15.17
2019-03-30T04:47:27.466Z,19.77
2019-03-30T04:52:23.992Z,17.63
2019-03-30T04:57:20.650Z,16.07
2019-03-30T05:02:17.254Z,17.10
2019-03-30T05:07:15.264Z,17.77
2019-03-30T05:12:11.864Z,15.67
2019-03-30T05:17:08.517Z,14.97
2019-03-30T05:22:11.932Z,15.10
2019-03-30T05:27:04.042Z,17.80
2019-03-30T05:32:00.736Z,17.07
2019-03-30T05:36:57.388Z,17.07
2019-03-30T05:42:16.217Z,15.83
2019-03-30T05:47:50.788Z,16.87
2019-03-30T05:53:00.932Z,16.70
2019-03-30T05:57:57.793Z,16.47
2019-03-30T06:03:32.843Z,13.43
2019-03-30T06:08:29.826Z,17.27
2019-03-30T06:13:30.513Z,13.77
2019-03-30T06:18:27.513Z,18.00
2019-03-30T06:23:27.601Z,17.10
2019-03-30T06:28:24.660Z,20.43
2019-03-30T06:33:30.921Z,15.43
2019-03-30T06:38:37.064Z,18.27
2019-03-30T06:43:37.208Z,16.80
2019-03-30T06:48:38.143Z,18.13
2019-03-30T06:53:40.094Z,17.60
2019-03-30T06:58:40.007Z,16.77
2019-03-30T07:03:47.032Z,18.13
2019-03-30T07:08:56.513Z,23.13
2019-03-30T07:13:58.211Z,18.53
2019-03-30T07:19:04.386Z,20.60
2019-03-30T07:24:01.407Z,21.47
2019-03-30T07:28:59.546Z,21.10
2019-03-30T07:33:56.987Z,23.47
2019-03-30T07:58:28.396Z,23.27
2019-03-30T10:07:27.028Z,20.37
2019-03-30T10:12:23.960Z,15.30
2019-03-30T10:17:24.270Z,15.80
2019-03-30T10:22:21.159Z,17.53
2019-03-30T10:27:17.958Z,18.00
2019-03-30T10:32:14.804Z,19.00
2019-03-30T10:37:14.139Z,19.93
2019-03-30T10:42:15.357Z,16.07
2019-03-30T10:47:16.825Z,23.20
2019-03-30T10:52:15.259Z,15.90
2019-03-30T10:57:12.099Z,18.33
2019-03-30T11:02:11.033Z,19.37
2019-03-30T11:07:10.005Z,19.13
2019-03-30T11:12:12.034Z,16.83
2019-03-30T11:17:14.587Z,15.83
2019-03-30T11:22:29.504Z,18.70
2019-03-30T11:27:26.239Z,18.80
2019-03-30T11:32:22.882Z,17.90
2019-03-30T11:37:19.546Z,18.23
2019-03-30T11:42:16.359Z,16.50
2019-03-30T11:47:12.989Z,20.10
2019-03-30T11:52:09.756Z,19.27
2019-03-30T11:57:06.349Z,16.33
2019-03-30T12:02:03.041Z,17.77
2019-03-30T12:06:59.656Z,18.57
2019-03-30T12:11:56.274Z,18.27
2019-03-30T12:16:52.975Z,20.63
2019-03-30T12:21:49.643Z,19.23
2019-03-30T12:26:46.275Z,19.27
2019-03-30T12:31:42.906Z,20.30
2019-03-30T12:36:39.749Z,20.07
2019-03-30T12:41:37.220Z,18.10
2019-03-30T12:46:34.032Z,18.63
2019-03-30T12:51:30.766Z,17.67
2019-03-30T12:56:27.608Z,16.43
2019-03-30T13:01:24.258Z,18.50
2019-03-30T13:06:20.954Z,18.50
2019-03-30T13:11:17.566Z,16.97
2019-03-30T13:16:14.245Z,17.50
2019-03-30T13:21:10.909Z,13.70
2019-03-30T13:26:07.700Z,14.90
2019-03-30T13:31:04.390Z,12.00
2019-03-30T13:36:01.043Z,16.47
2019-03-30T13:40:57.714Z,15.10
2019-03-30T13:45:54.317Z,12.13
2019-03-30T13:50:51.016Z,13.70
2019-03-30T13:55:47.651Z,12.43
2019-03-30T14:00:44.647Z,14.97
2019-03-30T14:05:41.663Z,16.43
2019-03-30T14:10:39.086Z,16.97
2019-03-30T14:15:36.215Z,18.10
2019-03-30T14:20:35.317Z,20.77
2019-03-30T14:25:32.050Z,19.67
2019-03-30T14:30:28.628Z,16.27
2019-03-30T14:35:25.293Z,18.20
2019-03-30T14:40:21.913Z,17.47
2019-03-30T14:45:18.577Z,16.30
2019-03-30T14:50:15.564Z,15.23
2019-03-30T14:55:13.460Z,9.73
2019-03-30T15:00:11.616Z,12.07
2019-03-30T15:05:12.207Z,11.53
2019-03-30T15:10:10.419Z,6.77
2019-03-30T15:15:08.126Z,8.50
2019-03-30T15:20:04.935Z,9.57
2019-03-30T15:25:01.693Z,10.83
2019-03-30T15:29:58.380Z,12.77
2019-03-30T15:34:58.263Z,11.83
2019-03-30T15:39:53.479Z,11.83
2019-03-30T15:44:50.335Z,8.40
2019-03-30T15:49:47.264Z,8.53
2019-03-30T15:54:43.875Z,5.90
2019-03-30T15:59:40.578Z,7.00
2019-03-30T16:04:37.509Z,8.33
2019-03-30T16:09:36.110Z,6.50
2019-03-30T16:14:34.145Z,6.80
2019-03-30T16:19:30.873Z,8.40
2019-03-30T16:24:30.105Z,5.10
2019-03-30T16:29:26.031Z,4.13
2019-03-30T16:34:22.743Z,4.07
2019-03-30T16:39:19.519Z,3.97
2019-03-30T16:44:16.303Z,3.70
2019-03-30T16:49:12.975Z,4.50
2019-03-30T16:54:09.948Z,5.87
2019-03-30T16:59:07.113Z,6.03
2019-03-30T17:04:03.880Z,3.43
2019-03-30T17:09:00.645Z,4.23
2019-03-30T17:13:57.538Z,4.13
2019-03-30T17:18:54.284Z,4.13
2019-03-30T17:23:51.181Z,5.93
2019-03-30T17:28:47.869Z,7.33
2019-03-30T17:33:44.546Z,9.77
2019-03-30T17:38:41.229Z,8.17
2019-03-30T17:43:38.028Z,8.63
2019-03-30T17:48:35.949Z,9.07
2019-03-30T17:53:32.639Z,9.60
2019-03-30T17:58:29.450Z,6.63
2019-03-30T18:03:26.190Z,5.97
2019-03-30T18:08:22.909Z,6.60
2019-03-30T18:13:19.637Z,8.27
2019-03-30T18:18:16.339Z,6.90
2019-03-30T18:23:15.830Z,7.90
2019-03-30T18:28:27.671Z,4.77
2019-03-30T18:33:29.863Z,6.80
2019-03-30T18:38:39.963Z,6.87
2019-03-30T18:43:47.026Z,9.60
2019-03-30T18:48:59.229Z,8.67
2019-03-30T18:54:00.136Z,7.63
2019-03-30T18:59:00.617Z,7.33
2019-03-30T19:03:56.279Z,10.53
2019-03-30T19:09:27.111Z,11.10
2019-03-30T19:15:06.476Z,11.63
2019-03-30T19:20:14.613Z,8.97
2019-03-30T19:25:33.875Z,8.40
2019-03-30T19:36:29.996Z,7.67
2019-03-30T19:41:51.157Z,10.37
2019-03-30T19:47:22.607Z,12.50
2019-03-30T19:52:40.060Z,10.33
2019-03-30T19:57:55.450Z,12.00
2019-03-30T20:03:02.273Z,10.80
2019-03-30T20:08:40.292Z,11.47
2019-03-30T20:13:55.270Z,11.17
2019-03-30T20:19:12.430Z,9.17
2019-03-30T20:24:24.334Z,9.23
2019-03-30T20:29:39.753Z,6.90
2019-03-30T20:34:45.835Z,7.50
2019-03-30T20:39:55.852Z,8.00
2019-03-30T20:45:04.155Z,8.13
2019-03-30T20:50:51.802Z,7.77
2019-03-30T20:56:08.767Z,9.40
2019-03-30T21:01:15.730Z,7.80
2019-03-30T21:20:17.143Z,9.60
2019-03-30T21:31:18.202Z,8.80
2019-03-30T21:36:40.980Z,7.37
2019-03-30T21:41:48.023Z,8.07
2019-03-30T21:46:55.063Z,12.13
2019-03-30T21:52:27.063Z,6.80
2019-03-30T21:57:16.852Z,7.13
2019-03-30T22:02:30.295Z,7.80
2019-03-30T22:08:08.437Z,9.27
2019-03-30T22:13:25.378Z,8.30
2019-03-30T22:18:45.334Z,9.97
2019-03-30T22:23:57.493Z,7.53
2019-03-30T22:29:07.854Z,9.57
2019-03-30T22:34:15.205Z,10.47
2019-03-30T22:39:28.546Z,8.37
2019-03-30T22:45:15.319Z,9.20
2019-03-30T22:50:30.240Z,10.50
2019-03-30T22:55:34.071Z,9.80
2019-03-30T23:00:51.648Z,11.13
2019-03-30T23:05:50.995Z,10.53
2019-03-30T23:11:00.595Z,9.10
2019-03-30T23:16:07.944Z,9.30
2019-03-30T23:21:16.058Z,9.77
2019-03-30T23:26:13.792Z,8.43
2019-03-30T23:31:10.396Z,9.67
2019-03-30T23:36:07.016Z,8.80
2019-03-30T23:41:03.716Z,11.37
2019-03-30T23:46:00.352Z,11.90
2019-03-30T23:50:56.988Z,9.33
2019-03-30T23:55:53.602Z,10.20
